sensor_id;sensor_type;location;lat;lon;timestamp;P1;durP1;ratioP1;P2;durP2;ratioP2
57025;SDS011;43961;52.940;6.834;2024-03-06T00:01:01;50.65;;;32.67;;
57025;SDS011;43961;52.940;6.834;2024-03-06T00:03:27;73.00;;;34.38;;
57025;SDS011;43961;52.940;6.834;2024-03-06T00:05:52;57.42;;;33.00;;
57025;SDS011;43961;52.940;6.834;2024-03-06T00:08:18;52.63;;;31.92;;
57025;SDS011;43961;52.940;6.834;2024-03-06T00:10:44;59.10;;;35.85;;
57025;SDS011;43961;52.940;6.834;2024-03-06T00:13:10;58.97;;;34.83;;
57025;SDS011;43961;52.940;6.834;2024-03-06T00:15:36;61.30;;;36.50;;
57025;SDS011;43961;52.940;6.834;2024-03-06T00:18:01;63.88;;;35.97;;
57025;SDS011;43961;52.940;6.834;2024-03-06T00:20:28;54.03;;;35.65;;
57025;SDS011;43961;52.940;6.834;2024-03-06T00:22:54;56.60;;;34.33;;
57025;SDS011;43961;52.940;6.834;2024-03-06T00:25:20;56.33;;;34.88;;
57025;SDS011;43961;52.940;6.834;2024-03-06T00:27:46;54.97;;;34.78;;
57025;SDS011;43961;52.940;6.834;2024-03-06T00:30:12;54.42;;;33.63;;
57025;SDS011;43961;52.940;6.834;2024-03-06T00:32:38;63.55;;;34.95;;
57025;SDS011;43961;52.940;6.834;2024-03-06T00:35:04;64.35;;;34.85;;
57025;SDS011;43961;52.940;6.834;2024-03-06T00:37:30;56.15;;;34.45;;
57025;SDS011;43961;52.940;6.834;2024-03-06T00:39:55;58.80;;;35.30;;
57025;SDS011;43961;52.940;6.834;2024-03-06T00:42:21;59.65;;;35.63;;
57025;SDS011;43961;52.940;6.834;2024-03-06T00:44:47;53.10;;;34.78;;
57025;SDS011;43961;52.940;6.834;2024-03-06T00:47:12;58.72;;;35.50;;
57025;SDS011;43961;52.940;6.834;2024-03-06T00:49:38;52.53;;;33.45;;
57025;SDS011;43961;52.940;6.834;2024-03-06T00:52:04;56.63;;;35.85;;
57025;SDS011;43961;52.940;6.834;2024-03-06T00:54:29;59.75;;;34.00;;
57025;SDS011;43961;52.940;6.834;2024-03-06T00:56:56;62.35;;;34.95;;
57025;SDS011;43961;52.940;6.834;2024-03-06T00:59:22;55.20;;;34.15;;
57025;SDS011;43961;52.940;6.834;2024-03-06T01:01:48;60.67;;;36.83;;
57025;SDS011;43961;52.940;6.834;2024-03-06T01:04:14;58.90;;;34.60;;
57025;SDS011;43961;52.940;6.834;2024-03-06T01:06:39;59.25;;;35.95;;
57025;SDS011;43961;52.940;6.834;2024-03-06T01:09:05;60.08;;;34.70;;
57025;SDS011;43961;52.940;6.834;2024-03-06T01:11:30;58.38;;;34.10;;
57025;SDS011;43961;52.940;6.834;2024-03-06T01:13:56;63.90;;;36.33;;
57025;SDS011;43961;52.940;6.834;2024-03-06T01:16:22;54.33;;;33.28;;
57025;SDS011;43961;52.940;6.834;2024-03-06T01:18:48;59.67;;;33.40;;
57025;SDS011;43961;52.940;6.834;2024-03-06T01:21:14;61.00;;;36.67;;
57025;SDS011;43961;52.940;6.834;2024-03-06T01:23:40;48.00;;;32.13;;
57025;SDS011;43961;52.940;6.834;2024-03-06T01:26:06;68.75;;;33.88;;
57025;SDS011;43961;52.940;6.834;2024-03-06T01:28:31;65.38;;;35.78;;
57025;SDS011;43961;52.940;6.834;2024-03-06T01:30:58;61.75;;;34.88;;
57025;SDS011;43961;52.940;6.834;2024-03-06T01:33:23;59.15;;;36.67;;
57025;SDS011;43961;52.940;6.834;2024-03-06T01:35:49;62.92;;;37.08;;
57025;SDS011;43961;52.940;6.834;2024-03-06T01:38:15;63.35;;;35.97;;
57025;SDS011;43961;52.940;6.834;2024-03-06T01:40:43;64.93;;;37.17;;
57025;SDS011;43961;52.940;6.834;2024-03-06T01:43:19;58.05;;;34.97;;
57025;SDS011;43961;52.940;6.834;2024-03-06T01:45:47;57.75;;;34.10;;
57025;SDS011;43961;52.940;6.834;2024-03-06T01:48:13;62.10;;;35.70;;
57025;SDS011;43961;52.940;6.834;2024-03-06T01:50:41;67.15;;;35.80;;
57025;SDS011;43961;52.940;6.834;2024-03-06T01:53:07;64.72;;;35.25;;
57025;SDS011;43961;52.940;6.834;2024-03-06T01:55:34;65.07;;;39.03;;
57025;SDS011;43961;52.940;6.834;2024-03-06T01:58:01;58.40;;;36.50;;
57025;SDS011;43961;52.940;6.834;2024-03-06T02:00:27;66.50;;;36.10;;
57025;SDS011;43961;52.940;6.834;2024-03-06T02:02:53;56.15;;;36.80;;
57025;SDS011;43961;52.940;6.834;2024-03-06T02:05:19;68.35;;;37.70;;
57025;SDS011;43961;52.940;6.834;2024-03-06T02:07:45;61.20;;;36.97;;
57025;SDS011;43961;52.940;6.834;2024-03-06T02:10:12;59.10;;;35.50;;
57025;SDS011;43961;52.940;6.834;2024-03-06T02:12:38;58.10;;;36.35;;
57025;SDS011;43961;52.940;6.834;2024-03-06T02:15:04;68.07;;;36.60;;
57025;SDS011;43961;52.940;6.834;2024-03-06T02:17:30;62.63;;;37.50;;
57025;SDS011;43961;52.940;6.834;2024-03-06T02:19:56;57.80;;;36.25;;
57025;SDS011;43961;52.940;6.834;2024-03-06T02:22:23;58.22;;;34.38;;
57025;SDS011;43961;52.940;6.834;2024-03-06T02:24:50;57.88;;;36.25;;
57025;SDS011;43961;52.940;6.834;2024-03-06T02:27:15;60.40;;;36.10;;
57025;SDS011;43961;52.940;6.834;2024-03-06T02:29:41;61.60;;;36.97;;
57025;SDS011;43961;52.940;6.834;2024-03-06T02:32:07;62.67;;;35.47;;
57025;SDS011;43961;52.940;6.834;2024-03-06T02:34:33;59.90;;;36.63;;
57025;SDS011;43961;52.940;6.834;2024-03-06T02:36:59;54.30;;;36.22;;
57025;SDS011;43961;52.940;6.834;2024-03-06T02:39:25;64.45;;;37.83;;
57025;SDS011;43961;52.940;6.834;2024-03-06T02:41:51;63.85;;;37.58;;
57025;SDS011;43961;52.940;6.834;2024-03-06T02:44:16;70.75;;;36.17;;
57025;SDS011;43961;52.940;6.834;2024-03-06T02:46:46;67.32;;;37.67;;
57025;SDS011;43961;52.940;6.834;2024-03-06T02:49:13;58.80;;;37.75;;
57025;SDS011;43961;52.940;6.834;2024-03-06T02:51:38;68.43;;;37.35;;
57025;SDS011;43961;52.940;6.834;2024-03-06T02:54:04;62.30;;;36.20;;
57025;SDS011;43961;52.940;6.834;2024-03-06T02:56:29;65.60;;;37.85;;
57025;SDS011;43961;52.940;6.834;2024-03-06T02:58:55;68.88;;;39.38;;
57025;SDS011;43961;52.940;6.834;2024-03-06T03:01:20;70.90;;;38.80;;
57025;SDS011;43961;52.940;6.834;2024-03-06T03:03:46;61.72;;;39.08;;
57025;SDS011;43961;52.940;6.834;2024-03-06T03:06:13;69.38;;;38.60;;
57025;SDS011;43961;52.940;6.834;2024-03-06T03:08:39;61.92;;;37.80;;
57025;SDS011;43961;52.940;6.834;2024-03-06T03:11:05;67.32;;;38.33;;
57025;SDS011;43961;52.940;6.834;2024-03-06T03:13:31;68.30;;;37.33;;
57025;SDS011;43961;52.940;6.834;2024-03-06T03:15:57;69.95;;;37.83;;
57025;SDS011;43961;52.940;6.834;2024-03-06T03:18:23;69.15;;;38.55;;
57025;SDS011;43961;52.940;6.834;2024-03-06T03:20:48;62.75;;;37.90;;
57025;SDS011;43961;52.940;6.834;2024-03-06T03:23:14;58.42;;;36.42;;
57025;SDS011;43961;52.940;6.834;2024-03-06T03:25:46;74.85;;;39.47;;
57025;SDS011;43961;52.940;6.834;2024-03-06T03:28:14;70.60;;;38.88;;
57025;SDS011;43961;52.940;6.834;2024-03-06T03:30:40;64.25;;;38.58;;
57025;SDS011;43961;52.940;6.834;2024-03-06T03:33:09;58.63;;;37.33;;
57025;SDS011;43961;52.940;6.834;2024-03-06T03:35:34;62.78;;;39.42;;
57025;SDS011;43961;52.940;6.834;2024-03-06T03:38:00;75.18;;;39.63;;
57025;SDS011;43961;52.940;6.834;2024-03-06T03:40:26;65.00;;;40.33;;
57025;SDS011;43961;52.940;6.834;2024-03-06T03:42:51;66.72;;;39.50;;
57025;SDS011;43961;52.940;6.834;2024-03-06T03:45:17;63.13;;;39.53;;
57025;SDS011;43961;52.940;6.834;2024-03-06T03:47:43;79.07;;;40.67;;
57025;SDS011;43961;52.940;6.834;2024-03-06T03:50:09;68.93;;;38.35;;
57025;SDS011;43961;52.940;6.834;2024-03-06T03:52:34;71.03;;;39.72;;
57025;SDS011;43961;52.940;6.834;2024-03-06T03:55:00;70.90;;;40.70;;
57025;SDS011;43961;52.940;6.834;2024-03-06T03:57:25;68.93;;;39.22;;
57025;SDS011;43961;52.940;6.834;2024-03-06T03:59:51;65.72;;;39.33;;
57025;SDS011;43961;52.940;6.834;2024-03-06T04:02:17;71.47;;;43.10;;
57025;SDS011;43961;52.940;6.834;2024-03-06T04:04:42;70.95;;;41.80;;
57025;SDS011;43961;52.940;6.834;2024-03-06T04:07:08;64.00;;;40.55;;
57025;SDS011;43961;52.940;6.834;2024-03-06T04:09:34;68.57;;;41.40;;
57025;SDS011;43961;52.940;6.834;2024-03-06T04:12:03;65.47;;;40.67;;
57025;SDS011;43961;52.940;6.834;2024-03-06T04:14:29;67.80;;;39.97;;
57025;SDS011;43961;52.940;6.834;2024-03-06T04:16:55;74.05;;;42.08;;
57025;SDS011;43961;52.940;6.834;2024-03-06T04:19:21;64.38;;;38.80;;
57025;SDS011;43961;52.940;6.834;2024-03-06T04:21:47;75.43;;;41.20;;
57025;SDS011;43961;52.940;6.834;2024-03-06T04:24:12;67.18;;;40.53;;
57025;SDS011;43961;52.940;6.834;2024-03-06T04:26:38;68.68;;;42.17;;
57025;SDS011;43961;52.940;6.834;2024-03-06T04:29:03;68.95;;;40.40;;
57025;SDS011;43961;52.940;6.834;2024-03-06T04:31:29;66.25;;;40.13;;
57025;SDS011;43961;52.940;6.834;2024-03-06T04:33:55;71.78;;;42.85;;
57025;SDS011;43961;52.940;6.834;2024-03-06T04:36:20;82.07;;;44.03;;
57025;SDS011;43961;52.940;6.834;2024-03-06T04:38:46;73.80;;;42.72;;
57025;SDS011;43961;52.940;6.834;2024-03-06T04:41:13;68.30;;;42.67;;
57025;SDS011;43961;52.940;6.834;2024-03-06T04:43:39;72.57;;;43.40;;
57025;SDS011;43961;52.940;6.834;2024-03-06T04:46:04;66.50;;;40.70;;
57025;SDS011;43961;52.940;6.834;2024-03-06T04:48:30;74.63;;;44.55;;
57025;SDS011;43961;52.940;6.834;2024-03-06T04:50:56;73.93;;;43.63;;
57025;SDS011;43961;52.940;6.834;2024-03-06T04:53:21;72.32;;;44.20;;
57025;SDS011;43961;52.940;6.834;2024-03-06T04:55:47;83.50;;;46.22;;
57025;SDS011;43961;52.940;6.834;2024-03-06T04:58:13;75.60;;;42.13;;
57025;SDS011;43961;52.940;6.834;2024-03-06T05:00:38;69.53;;;41.72;;
57025;SDS011;43961;52.940;6.834;2024-03-06T05:03:04;72.28;;;45.33;;
57025;SDS011;43961;52.940;6.834;2024-03-06T05:05:30;76.85;;;44.97;;
57025;SDS011;43961;52.940;6.834;2024-03-06T05:07:57;79.20;;;46.22;;
57025;SDS011;43961;52.940;6.834;2024-03-06T05:10:23;81.68;;;48.33;;
57025;SDS011;43961;52.940;6.834;2024-03-06T05:12:48;77.75;;;45.53;;
57025;SDS011;43961;52.940;6.834;2024-03-06T05:15:15;87.60;;;48.63;;
57025;SDS011;43961;52.940;6.834;2024-03-06T05:17:41;77.47;;;47.65;;
57025;SDS011;43961;52.940;6.834;2024-03-06T05:20:07;74.22;;;44.28;;
57025;SDS011;43961;52.940;6.834;2024-03-06T05:22:33;84.78;;;45.72;;
57025;SDS011;43961;52.940;6.834;2024-03-06T05:24:58;78.95;;;45.65;;
57025;SDS011;43961;52.940;6.834;2024-03-06T05:27:26;86.35;;;47.90;;
57025;SDS011;43961;52.940;6.834;2024-03-06T05:29:52;76.60;;;45.80;;
57025;SDS011;43961;52.940;6.834;2024-03-06T05:32:17;82.35;;;47.17;;
57025;SDS011;43961;52.940;6.834;2024-03-06T05:34:43;80.18;;;47.10;;
57025;SDS011;43961;52.940;6.834;2024-03-06T05:37:09;82.13;;;48.20;;
57025;SDS011;43961;52.940;6.834;2024-03-06T05:39:35;91.35;;;49.63;;
57025;SDS011;43961;52.940;6.834;2024-03-06T05:42:03;79.65;;;46.22;;
57025;SDS011;43961;52.940;6.834;2024-03-06T05:44:32;82.50;;;46.72;;
57025;SDS011;43961;52.940;6.834;2024-03-06T05:46:58;79.82;;;46.78;;
57025;SDS011;43961;52.940;6.834;2024-03-06T05:49:26;87.97;;;47.78;;
57025;SDS011;43961;52.940;6.834;2024-03-06T05:51:52;81.40;;;47.08;;
57025;SDS011;43961;52.940;6.834;2024-03-06T05:54:18;83.70;;;51.33;;
57025;SDS011;43961;52.940;6.834;2024-03-06T05:56:47;83.43;;;49.03;;
57025;SDS011;43961;52.940;6.834;2024-03-06T05:59:14;78.30;;;48.53;;
57025;SDS011;43961;52.940;6.834;2024-03-06T06:01:41;85.93;;;48.35;;
57025;SDS011;43961;52.940;6.834;2024-03-06T06:04:07;87.43;;;48.47;;
57025;SDS011;43961;52.940;6.834;2024-03-06T06:06:34;86.82;;;47.80;;
57025;SDS011;43961;52.940;6.834;2024-03-06T06:09:00;76.22;;;45.92;;
57025;SDS011;43961;52.940;6.834;2024-03-06T06:11:25;75.43;;;46.13;;
57025;SDS011;43961;52.940;6.834;2024-03-06T06:13:51;80.80;;;45.55;;
57025;SDS011;43961;52.940;6.834;2024-03-06T06:16:18;77.43;;;47.58;;
57025;SDS011;43961;52.940;6.834;2024-03-06T06:18:44;77.43;;;46.10;;
57025;SDS011;43961;52.940;6.834;2024-03-06T06:21:09;78.55;;;47.63;;
57025;SDS011;43961;52.940;6.834;2024-03-06T06:23:35;75.10;;;45.20;;
57025;SDS011;43961;52.940;6.834;2024-03-06T06:26:00;78.57;;;47.47;;
57025;SDS011;43961;52.940;6.834;2024-03-06T06:28:26;82.40;;;49.60;;
57025;SDS011;43961;52.940;6.834;2024-03-06T06:30:52;83.03;;;47.65;;
57025;SDS011;43961;52.940;6.834;2024-03-06T06:33:18;69.55;;;43.88;;
57025;SDS011;43961;52.940;6.834;2024-03-06T06:35:44;81.93;;;48.22;;
57025;SDS011;43961;52.940;6.834;2024-03-06T06:38:10;83.80;;;45.03;;
57025;SDS011;43961;52.940;6.834;2024-03-06T06:40:35;81.72;;;46.85;;
57025;SDS011;43961;52.940;6.834;2024-03-06T06:43:01;76.63;;;46.97;;
57025;SDS011;43961;52.940;6.834;2024-03-06T06:45:27;79.43;;;46.88;;
57025;SDS011;43961;52.940;6.834;2024-03-06T06:47:53;79.95;;;47.00;;
57025;SDS011;43961;52.940;6.834;2024-03-06T06:50:18;86.65;;;46.90;;
57025;SDS011;43961;52.940;6.834;2024-03-06T06:52:47;72.00;;;45.83;;
57025;SDS011;43961;52.940;6.834;2024-03-06T06:55:13;76.95;;;46.95;;
57025;SDS011;43961;52.940;6.834;2024-03-06T06:57:39;81.50;;;46.38;;
57025;SDS011;43961;52.940;6.834;2024-03-06T07:00:05;77.60;;;46.90;;
57025;SDS011;43961;52.940;6.834;2024-03-06T07:02:42;83.97;;;47.22;;
57025;SDS011;43961;52.940;6.834;2024-03-06T07:05:08;74.18;;;45.83;;
57025;SDS011;43961;52.940;6.834;2024-03-06T07:07:35;90.47;;;49.55;;
57025;SDS011;43961;52.940;6.834;2024-03-06T07:10:02;75.90;;;45.85;;
57025;SDS011;43961;52.940;6.834;2024-03-06T07:12:28;75.22;;;45.22;;
57025;SDS011;43961;52.940;6.834;2024-03-06T07:14:54;82.65;;;49.63;;
57025;SDS011;43961;52.940;6.834;2024-03-06T07:17:20;81.28;;;47.90;;
57025;SDS011;43961;52.940;6.834;2024-03-06T07:19:46;80.95;;;47.15;;
57025;SDS011;43961;52.940;6.834;2024-03-06T07:22:11;72.82;;;46.95;;
57025;SDS011;43961;52.940;6.834;2024-03-06T07:24:37;76.35;;;46.30;;
57025;SDS011;43961;52.940;6.834;2024-03-06T07:27:03;74.43;;;45.13;;
57025;SDS011;43961;52.940;6.834;2024-03-06T07:29:29;71.28;;;46.92;;
57025;SDS011;43961;52.940;6.834;2024-03-06T07:31:54;84.25;;;46.58;;
57025;SDS011;43961;52.940;6.834;2024-03-06T07:34:20;78.18;;;45.30;;
57025;SDS011;43961;52.940;6.834;2024-03-06T07:36:49;77.07;;;45.67;;
57025;SDS011;43961;52.940;6.834;2024-03-06T07:39:18;82.18;;;49.05;;
57025;SDS011;43961;52.940;6.834;2024-03-06T07:41:44;74.35;;;44.85;;
57025;SDS011;43961;52.940;6.834;2024-03-06T07:44:10;79.53;;;47.03;;
57025;SDS011;43961;52.940;6.834;2024-03-06T07:46:36;78.90;;;45.28;;
57025;SDS011;43961;52.940;6.834;2024-03-06T07:49:02;73.45;;;47.15;;
57025;SDS011;43961;52.940;6.834;2024-03-06T07:51:31;78.05;;;48.45;;
57025;SDS011;43961;52.940;6.834;2024-03-06T07:53:57;85.00;;;46.42;;
57025;SDS011;43961;52.940;6.834;2024-03-06T07:56:26;83.65;;;46.70;;
57025;SDS011;43961;52.940;6.834;2024-03-06T07:58:52;74.93;;;44.95;;
57025;SDS011;43961;52.940;6.834;2024-03-06T08:01:21;75.80;;;45.45;;
57025;SDS011;43961;52.940;6.834;2024-03-06T08:03:47;80.32;;;45.85;;
57025;SDS011;43961;52.940;6.834;2024-03-06T08:06:13;79.43;;;46.53;;
57025;SDS011;43961;52.940;6.834;2024-03-06T08:08:42;74.63;;;44.97;;
57025;SDS011;43961;52.940;6.834;2024-03-06T08:11:09;80.43;;;47.53;;
57025;SDS011;43961;52.940;6.834;2024-03-06T08:13:36;77.50;;;49.13;;
57025;SDS011;43961;52.940;6.834;2024-03-06T08:16:02;81.45;;;47.10;;
57025;SDS011;43961;52.940;6.834;2024-03-06T08:18:29;79.75;;;46.25;;
57025;SDS011;43961;52.940;6.834;2024-03-06T08:20:55;72.63;;;46.13;;
57025;SDS011;43961;52.940;6.834;2024-03-06T08:23:21;86.28;;;48.65;;
57025;SDS011;43961;52.940;6.834;2024-03-06T08:25:48;85.57;;;47.88;;
57025;SDS011;43961;52.940;6.834;2024-03-06T08:28:14;81.07;;;48.35;;
57025;SDS011;43961;52.940;6.834;2024-03-06T08:30:40;78.35;;;47.67;;
57025;SDS011;43961;52.940;6.834;2024-03-06T08:33:06;88.95;;;49.85;;
57025;SDS011;43961;52.940;6.834;2024-03-06T08:35:32;73.57;;;47.97;;
57025;SDS011;43961;52.940;6.834;2024-03-06T08:37:57;87.80;;;48.33;;
57025;SDS011;43961;52.940;6.834;2024-03-06T08:40:23;82.93;;;49.65;;
57025;SDS011;43961;52.940;6.834;2024-03-06T08:42:50;87.47;;;51.67;;
57025;SDS011;43961;52.940;6.834;2024-03-06T08:45:16;98.03;;;50.83;;
57025;SDS011;43961;52.940;6.834;2024-03-06T08:47:43;94.40;;;49.85;;
57025;SDS011;43961;52.940;6.834;2024-03-06T08:50:10;81.50;;;49.38;;
57025;SDS011;43961;52.940;6.834;2024-03-06T08:52:37;84.63;;;47.50;;
57025;SDS011;43961;52.940;6.834;2024-03-06T08:55:03;88.78;;;52.03;;
57025;SDS011;43961;52.940;6.834;2024-03-06T08:57:29;82.10;;;50.38;;
57025;SDS011;43961;52.940;6.834;2024-03-06T08:59:56;84.25;;;49.60;;
57025;SDS011;43961;52.940;6.834;2024-03-06T09:02:23;82.28;;;49.65;;
57025;SDS011;43961;52.940;6.834;2024-03-06T09:04:49;85.88;;;51.33;;
57025;SDS011;43961;52.940;6.834;2024-03-06T09:07:17;87.30;;;50.60;;
57025;SDS011;43961;52.940;6.834;2024-03-06T09:09:43;83.30;;;48.22;;
57025;SDS011;43961;52.940;6.834;2024-03-06T09:12:09;83.22;;;48.65;;
57025;SDS011;43961;52.940;6.834;2024-03-06T09:14:35;89.80;;;49.05;;
57025;SDS011;43961;52.940;6.834;2024-03-06T09:17:05;84.07;;;50.95;;
57025;SDS011;43961;52.940;6.834;2024-03-06T09:19:34;90.93;;;51.88;;
57025;SDS011;43961;52.940;6.834;2024-03-06T09:22:00;87.35;;;50.65;;
57025;SDS011;43961;52.940;6.834;2024-03-06T09:24:26;91.60;;;51.35;;
57025;SDS011;43961;52.940;6.834;2024-03-06T09:26:52;82.18;;;49.13;;
57025;SDS011;43961;52.940;6.834;2024-03-06T09:29:18;90.70;;;52.92;;
57025;SDS011;43961;52.940;6.834;2024-03-06T09:31:44;92.38;;;53.28;;
57025;SDS011;43961;52.940;6.834;2024-03-06T09:34:10;90.82;;;49.92;;
57025;SDS011;43961;52.940;6.834;2024-03-06T09:36:41;86.57;;;50.05;;
57025;SDS011;43961;52.940;6.834;2024-03-06T09:39:12;85.57;;;50.08;;
57025;SDS011;43961;52.940;6.834;2024-03-06T09:41:41;91.22;;;52.40;;
57025;SDS011;43961;52.940;6.834;2024-03-06T09:44:11;84.03;;;51.17;;
57025;SDS011;43961;52.940;6.834;2024-03-06T09:46:39;84.30;;;51.78;;
57025;SDS011;43961;52.940;6.834;2024-03-06T09:49:08;94.82;;;55.85;;
57025;SDS011;43961;52.940;6.834;2024-03-06T09:51:35;89.40;;;53.17;;
57025;SDS011;43961;52.940;6.834;2024-03-06T09:54:01;80.25;;;48.03;;
57025;SDS011;43961;52.940;6.834;2024-03-06T09:56:28;89.25;;;51.65;;
57025;SDS011;43961;52.940;6.834;2024-03-06T09:58:54;86.13;;;50.03;;
57025;SDS011;43961;52.940;6.834;2024-03-06T10:01:21;86.88;;;49.95;;
57025;SDS011;43961;52.940;6.834;2024-03-06T10:03:48;90.03;;;51.00;;
57025;SDS011;43961;52.940;6.834;2024-03-06T10:06:15;90.07;;;53.05;;
57025;SDS011;43961;52.940;6.834;2024-03-06T10:08:42;82.47;;;49.20;;
57025;SDS011;43961;52.940;6.834;2024-03-06T10:11:09;91.65;;;53.50;;
57025;SDS011;43961;52.940;6.834;2024-03-06T10:13:35;88.95;;;51.88;;
57025;SDS011;43961;52.940;6.834;2024-03-06T10:16:04;94.00;;;51.67;;
57025;SDS011;43961;52.940;6.834;2024-03-06T10:18:35;102.03;;;54.80;;
57025;SDS011;43961;52.940;6.834;2024-03-06T10:21:01;88.95;;;50.88;;
57025;SDS011;43961;52.940;6.834;2024-03-06T10:23:27;87.15;;;50.15;;
57025;SDS011;43961;52.940;6.834;2024-03-06T10:25:54;97.20;;;53.85;;
57025;SDS011;43961;52.940;6.834;2024-03-06T10:28:21;91.75;;;52.30;;
57025;SDS011;43961;52.940;6.834;2024-03-06T10:30:48;83.30;;;50.92;;
57025;SDS011;43961;52.940;6.834;2024-03-06T10:33:15;96.25;;;54.75;;
57025;SDS011;43961;52.940;6.834;2024-03-06T10:35:44;91.03;;;53.92;;
57025;SDS011;43961;52.940;6.834;2024-03-06T10:38:12;95.43;;;55.00;;
57025;SDS011;43961;52.940;6.834;2024-03-06T10:40:39;105.55;;;55.30;;
57025;SDS011;43961;52.940;6.834;2024-03-06T10:43:06;86.35;;;50.67;;
57025;SDS011;43961;52.940;6.834;2024-03-06T10:45:40;92.03;;;54.55;;
57025;SDS011;43961;52.940;6.834;2024-03-06T10:48:15;107.25;;;55.78;;
57025;SDS011;43961;52.940;6.834;2024-03-06T10:50:42;102.30;;;54.47;;
57025;SDS011;43961;52.940;6.834;2024-03-06T10:53:10;90.80;;;56.20;;
57025;SDS011;43961;52.940;6.834;2024-03-06T10:55:36;93.80;;;56.45;;
57025;SDS011;43961;52.940;6.834;2024-03-06T10:58:09;93.15;;;51.95;;
57025;SDS011;43961;52.940;6.834;2024-03-06T11:00:42;100.55;;;60.53;;
57025;SDS011;43961;52.940;6.834;2024-03-06T11:03:11;104.50;;;58.03;;
57025;SDS011;43961;52.940;6.834;2024-03-06T11:05:38;96.35;;;55.47;;
57025;SDS011;43961;52.940;6.834;2024-03-06T11:08:14;107.20;;;57.30;;
57025;SDS011;43961;52.940;6.834;2024-03-06T11:10:42;104.55;;;57.95;;
57025;SDS011;43961;52.940;6.834;2024-03-06T11:15:46;96.93;;;57.72;;
57025;SDS011;43961;52.940;6.834;2024-03-06T11:21:22;109.03;;;60.08;;
57025;SDS011;43961;52.940;6.834;2024-03-06T11:26:37;113.88;;;60.55;;
57025;SDS011;43961;52.940;6.834;2024-03-06T11:29:07;106.55;;;60.15;;
57025;SDS011;43961;52.940;6.834;2024-03-06T11:31:33;113.75;;;61.83;;
57025;SDS011;43961;52.940;6.834;2024-03-06T11:34:02;102.05;;;61.25;;
57025;SDS011;43961;52.940;6.834;2024-03-06T11:36:29;104.28;;;59.85;;
57025;SDS011;43961;52.940;6.834;2024-03-06T11:39:02;109.65;;;62.13;;
57025;SDS011;43961;52.940;6.834;2024-03-06T11:44:00;108.30;;;60.10;;
57025;SDS011;43961;52.940;6.834;2024-03-06T11:46:45;104.43;;;60.13;;
57025;SDS011;43961;52.940;6.834;2024-03-06T11:49:22;113.53;;;63.30;;
57025;SDS011;43961;52.940;6.834;2024-03-06T11:51:51;102.43;;;60.17;;
57025;SDS011;43961;52.940;6.834;2024-03-06T11:54:18;102.82;;;61.47;;
57025;SDS011;43961;52.940;6.834;2024-03-06T11:56:49;102.47;;;58.08;;
57025;SDS011;43961;52.940;6.834;2024-03-06T11:59:16;106.53;;;61.83;;
57025;SDS011;43961;52.940;6.834;2024-03-06T12:02:05;92.28;;;56.72;;
57025;SDS011;43961;52.940;6.834;2024-03-06T12:04:32;94.65;;;59.50;;
57025;SDS011;43961;52.940;6.834;2024-03-06T12:07:03;98.75;;;58.35;;
57025;SDS011;43961;52.940;6.834;2024-03-06T12:09:34;102.63;;;60.38;;
57025;SDS011;43961;52.940;6.834;2024-03-06T12:12:05;102.18;;;57.83;;
57025;SDS011;43961;52.940;6.834;2024-03-06T12:14:34;94.47;;;58.00;;
57025;SDS011;43961;52.940;6.834;2024-03-06T12:17:01;96.40;;;60.03;;
57025;SDS011;43961;52.940;6.834;2024-03-06T12:19:33;95.57;;;57.58;;
57025;SDS011;43961;52.940;6.834;2024-03-06T12:22:02;109.68;;;61.90;;
57025;SDS011;43961;52.940;6.834;2024-03-06T12:24:29;95.47;;;59.75;;
57025;SDS011;43961;52.940;6.834;2024-03-06T12:27:05;100.53;;;59.55;;
57025;SDS011;43961;52.940;6.834;2024-03-06T12:29:34;111.00;;;61.40;;
57025;SDS011;43961;52.940;6.834;2024-03-06T12:32:01;102.63;;;61.42;;
57025;SDS011;43961;52.940;6.834;2024-03-06T12:34:27;105.53;;;60.78;;
57025;SDS011;43961;52.940;6.834;2024-03-06T12:36:55;88.20;;;55.23;;
57025;SDS011;43961;52.940;6.834;2024-03-06T12:39:22;101.85;;;61.00;;
57025;SDS011;43961;52.940;6.834;2024-03-06T12:41:51;103.93;;;59.25;;
57025;SDS011;43961;52.940;6.834;2024-03-06T12:44:19;101.32;;;58.63;;
57025;SDS011;43961;52.940;6.834;2024-03-06T12:46:45;97.32;;;59.38;;
57025;SDS011;43961;52.940;6.834;2024-03-06T12:49:10;103.68;;;60.22;;
57025;SDS011;43961;52.940;6.834;2024-03-06T12:51:36;111.78;;;65.78;;
57025;SDS011;43961;52.940;6.834;2024-03-06T12:54:02;104.22;;;61.13;;
57025;SDS011;43961;52.940;6.834;2024-03-06T12:56:28;97.57;;;58.65;;
57025;SDS011;43961;52.940;6.834;2024-03-06T12:58:54;108.32;;;60.05;;
57025;SDS011;43961;52.940;6.834;2024-03-06T13:01:20;100.57;;;61.20;;
57025;SDS011;43961;52.940;6.834;2024-03-06T13:03:45;102.47;;;60.28;;
57025;SDS011;43961;52.940;6.834;2024-03-06T13:06:11;91.60;;;57.45;;
57025;SDS011;43961;52.940;6.834;2024-03-06T13:08:37;101.40;;;61.67;;
57025;SDS011;43961;52.940;6.834;2024-03-06T13:11:03;99.40;;;63.38;;
57025;SDS011;43961;52.940;6.834;2024-03-06T13:13:29;103.32;;;60.72;;
57025;SDS011;43961;52.940;6.834;2024-03-06T13:15:55;108.90;;;65.85;;
57025;SDS011;43961;52.940;6.834;2024-03-06T13:18:21;112.03;;;63.20;;
57025;SDS011;43961;52.940;6.834;2024-03-06T13:20:47;104.95;;;64.15;;
57025;SDS011;43961;52.940;6.834;2024-03-06T13:23:12;114.45;;;62.05;;
57025;SDS011;43961;52.940;6.834;2024-03-06T13:25:38;102.57;;;60.30;;
57025;SDS011;43961;52.940;6.834;2024-03-06T13:28:04;105.53;;;63.40;;
57025;SDS011;43961;52.940;6.834;2024-03-06T13:30:30;102.82;;;60.22;;
57025;SDS011;43961;52.940;6.834;2024-03-06T13:32:57;104.45;;;65.18;;
57025;SDS011;43961;52.940;6.834;2024-03-06T13:35:23;101.57;;;62.27;;
57025;SDS011;43961;52.940;6.834;2024-03-06T13:37:49;107.78;;;61.33;;
57025;SDS011;43961;52.940;6.834;2024-03-06T13:40:15;102.07;;;61.67;;
57025;SDS011;43961;52.940;6.834;2024-03-06T13:42:41;99.85;;;57.15;;
57025;SDS011;43961;52.940;6.834;2024-03-06T13:45:08;96.18;;;58.72;;
57025;SDS011;43961;52.940;6.834;2024-03-06T13:47:40;97.55;;;58.72;;
57025;SDS011;43961;52.940;6.834;2024-03-06T13:50:10;100.53;;;57.92;;
57025;SDS011;43961;52.940;6.834;2024-03-06T13:52:37;103.35;;;61.22;;
57025;SDS011;43961;52.940;6.834;2024-03-06T13:55:03;101.20;;;59.53;;
57025;SDS011;43961;52.940;6.834;2024-03-06T13:57:32;99.32;;;59.38;;
57025;SDS011;43961;52.940;6.834;2024-03-06T14:00:04;93.40;;;59.05;;
57025;SDS011;43961;52.940;6.834;2024-03-06T14:02:32;102.38;;;60.88;;
57025;SDS011;43961;52.940;6.834;2024-03-06T14:04:58;100.72;;;61.30;;
57025;SDS011;43961;52.940;6.834;2024-03-06T14:07:24;102.63;;;60.80;;
57025;SDS011;43961;52.940;6.834;2024-03-06T14:09:50;99.18;;;62.10;;
57025;SDS011;43961;52.940;6.834;2024-03-06T14:12:16;101.47;;;60.90;;
57025;SDS011;43961;52.940;6.834;2024-03-06T14:14:42;107.45;;;62.92;;
57025;SDS011;43961;52.940;6.834;2024-03-06T14:17:08;101.03;;;62.78;;
57025;SDS011;43961;52.940;6.834;2024-03-06T14:19:34;98.97;;;61.70;;
57025;SDS011;43961;52.940;6.834;2024-03-06T14:21:59;100.15;;;62.42;;
57025;SDS011;43961;52.940;6.834;2024-03-06T14:24:25;111.35;;;62.20;;
57025;SDS011;43961;52.940;6.834;2024-03-06T14:26:51;101.95;;;63.88;;